CST,Max TemperatureF,Mean TemperatureF,Min TemperatureF,Max Dew PointF,MeanDew PointF,Min DewpointF,Max Humidity, Mean Humidity, Min Humidity, Max Sea Level PressureIn, Mean Sea Level PressureIn, Min Sea Level PressureIn, Max VisibilityMiles, Mean VisibilityMiles, Min VisibilityMiles, Max Wind SpeedMPH, Mean Wind SpeedMPH, Max Gust SpeedMPH,PrecipitationIn, CloudCover, Events, WindDirDegrees
2012-11-1,77,56,37,43,38,32,83,58,25,30.02,29.96,29.90,10,10,10,16,4,25,0.00,1,,289
2012-11-2,66,55,44,45,39,33,82,60,44,29.96,29.91,29.81,10,10,10,16,7,25,0.00,0,,87
2012-11-3,59,47,35,33,32,31,85,63,38,30.22,30.14,29.98,10,10,10,14,8,,0.00,0,,349
2012-11-4,64,46,28,40,33,27,92,62,34,30.24,30.13,30.03,10,10,10,15,4,22,0.00,2,,171
2012-11-5,52,47,42,43,41,39,100,88,68,30.14,30.08,29.99,10,8,2,20,10,26,0.01,8,Rain,337
2012-11-6,61,49,37,41,33,23,97,65,24,30.11,30.06,30.01,10,9,6,30,7,40,0.00,2,,290
2012-11-7,57,45,33,33,28,25,75,57,33,30.22,30.13,30.09,10,10,10,10,6,,0.00,0,,357
2012-11-8,70,54,37,43,37,31,79,56,33,30.09,29.95,29.85,10,10,10,22,10,31,0.00,0,,151
2012-11-9,77,62,46,58,52,42,83,66,50,29.84,29.77,29.70,10,10,10,20,13,29,0.00,0,,159
2012-11-10,73,68,64,57,55,53,73,62,55,29.75,29.68,29.62,10,10,10,29,20,43,0.00,1,Rain,178
2012-11-11,60,43,25,57,37,19,100,86,64,30.26,29.88,29.63,10,8,2,21,13,29,0.81,6,Rain-Thunderstorm,296
2012-11-12,46,34,21,21,18,16,82,60,29,30.45,30.38,30.28,10,10,10,24,7,30,0.00,0,,259
2012-11-13,57,40,23,32,27,20,88,61,28,30.45,30.39,30.32,10,10,10,14,5,,0.00,0,,177
2012-11-14,57,42,28,29,27,24,85,57,28,30.40,30.33,30.26,10,10,10,14,6,20,0.00,0,,163
2012-11-15,54,44,35,34,31,29,85,64,43,30.41,30.31,30.25,10,10,10,10,5,,0.00,2,,182
2012-11-16,59,44,28,38,33,27,96,72,38,30.48,30.41,30.35,10,10,8,9,5,,0.00,0,,110
2012-11-17,60,46,32,35,31,26,96,60,36,30.38,30.31,30.24,10,10,10,22,7,23,0.00,0,,160
2012-11-18,62,52,42,37,33,28,62,48,35,30.25,30.17,30.09,10,10,10,22,13,29,0.00,1,,167
2012-11-19,68,56,44,47,43,35,83,69,47,30.12,30.09,30.05,10,10,10,18,12,26,0.00,1,,210
2012-11-20,64,50,36,40,37,33,93,72,40,30.24,30.19,30.13,10,10,9,10,6,,0.00,0,,317
2012-11-21,73,54,34,43,40,31,93,58,30,30.20,30.10,29.92,10,10,6,22,11,26,0.00,0,,182
2012-11-22,71,55,39,52,43,34,83,55,41,30.27,29.96,29.83,10,10,10,28,16,33,0.00,0,,239
2012-11-23,41,32,24,34,17,10,76,53,30,30.55,30.45,30.29,10,10,10,24,13,36,0.00,0,,316
2012-11-24,48,34,19,24,19,14,85,54,32,30.43,30.16,29.88,10,10,10,18,6,25,0.00,0,,175
2012-11-25,55,42,30,32,27,22,78,56,37,30.06,29.95,29.87,10,10,10,14,7,16,0.00,0,,27
2012-11-26,41,32,21,27,24,16,82,72,49,30.49,30.30,30.07,10,10,10,21,9,29,0.00,1,,18
2012-11-27,42,27,12,20,16,8,92,67,37,30.49,30.40,30.29,10,10,9,14,5,,0.00,0,,190
2012-11-28,55,37,19,32,25,15,89,65,35,30.42,30.31,30.15,10,10,10,10,4,,0.00,0,,166
2012-11-29,62,50,39,41,36,32,82,66,46,30.14,30.04,29.96,10,10,10,15,9,22,0.00,0,,179
2012-11-30,57,45,33,49,38,30,92,73,51,30.10,30.04,29.98,10,10,5,8,5,,0.00,1,,161